Time;durP1;ratioP1;P1;durP2;ratioP2;P2;SDS_P1;SDS_P2;PMS_P1;PMS_P2;Temp;Humidity;BMP_temperature;BMP_pressure;BME280_temperature;BME280_humidity;BME280_pressure;Samples;Min_cycle;Max_cycle;Signal;HPM_P1;HPM_P2
2023/07/02 00:00:19;;;;;;;;;;;20.40;70.30;;;;;;6305665;22;19941;-73
2023/07/02 00:02:45;;;;;;;;;;;20.40;70.10;;;;;;6306138;22;19903;-73
2023/07/02 00:05:10;;;;;;;;;;;20.30;69.80;;;;;;6305945;22;19968;-73
2023/07/02 00:07:37;;;;;;;;;;;20.30;69.70;;;;;;6305578;22;19907;-73
2023/07/02 00:10:02;;;;;;;;;;;20.20;69.60;;;;;;6305555;22;20324;-73
2023/07/02 00:12:28;;;;;;;;;;;20.10;69.40;;;;;;6305486;22;19903;-73
2023/07/02 00:14:53;;;;;;;;;;;20.10;69.50;;;;;;6306132;22;20297;-73
2023/07/02 00:17:19;;;;;;;;;;;20.00;69.80;;;;;;6305825;22;19934;-73
2023/07/02 00:19:46;;;;;;;;;;;20.00;70.20;;;;;;6305961;22;19903;-73
2023/07/02 00:22:12;;;;;;;;;;;20.00;70.40;;;;;;6305505;22;19942;-73
2023/07/02 00:24:37;;;;;;;;;;;20.00;70.60;;;;;;6305633;22;19906;-72
2023/07/02 00:27:03;;;;;;;;;;;20.10;70.80;;;;;;6278058;22;19910;-73
2023/07/02 00:29:28;;;;;;;;;;;20.10;70.70;;;;;;6305714;22;19934;-73
2023/07/02 00:31:54;;;;;;;;;;;20.00;70.50;;;;;;6305322;22;19946;-73
2023/07/02 00:34:19;;;;;;;;;;;20.00;70.30;;;;;;6305990;22;19903;-73
2023/07/02 00:36:45;;;;;;;;;;;19.90;70.00;;;;;;6307326;22;19915;-73
2023/07/02 00:39:13;;;;;;;;;;;19.90;70.00;;;;;;6307664;22;19913;-73
2023/07/02 00:41:40;;;;;;;;;;;19.80;69.80;;;;;;6307244;22;20322;-72
2023/07/02 00:44:05;;;;;;;;;;;19.80;70.00;;;;;;6307618;22;19977;-72
2023/07/02 00:46:31;;;;;;;;;;;19.80;70.10;;;;;;6307273;22;20333;-73
2023/07/02 00:48:56;;;;;;;;;;;19.80;70.20;;;;;;6307644;22;19903;-73
2023/07/02 00:51:23;;;;;;;;;;;19.80;70.30;;;;;;6307278;22;20371;-73
2023/07/02 00:53:49;;;;;;;;;;;19.80;70.40;;;;;;6307493;22;19926;-73
2023/07/02 00:56:15;;;;;;;;;;;19.80;70.50;;;;;;6279531;22;19915;-72
2023/07/02 00:58:48;;;;;;;;;;;19.80;70.60;;;;;;6307346;22;19914;-72
2023/07/02 01:01:16;;;;;;;;;;;19.80;70.80;;;;;;6307276;22;19931;-72
2023/07/02 01:03:54;;;;;;;;;;;19.80;70.90;;;;;;6307325;22;20201;-72
2023/07/02 01:06:24;;;;;;;;;;;19.80;70.70;;;;;;6307037;22;19985;-72
2023/07/02 01:08:57;;;;;;;;;;;19.80;70.60;;;;;;6307243;22;19902;-73
2023/07/02 01:11:30;;;;;;;;;;;19.80;70.50;;;;;;6306890;22;19914;-72
2023/07/02 01:13:59;;;;;;;;;;;19.80;70.60;;;;;;6307706;22;19910;-73
2023/07/02 01:16:24;;;;;;;;;;;19.80;70.50;;;;;;6306819;22;19979;-72
2023/07/02 01:18:54;;;;;;;;;;;19.80;70.40;;;;;;6307408;22;20222;-72
2023/07/02 01:21:20;;;;;;;;;;;19.80;70.30;;;;;;6306776;22;19911;-73
2023/07/02 01:23:46;;;;;;;;;;;19.80;70.30;;;;;;6307134;22;19925;-72
2023/07/02 01:26:11;;;;;;;;;;;19.80;70.30;;;;;;6306950;22;19915;-73
2023/07/02 01:28:38;;;;;;;;;;;19.80;70.30;;;;;;6306914;22;20310;-73
2023/07/02 01:31:05;;;;;;;;;;;19.80;70.40;;;;;;6307115;22;19922;-73
2023/07/02 01:33:31;;;;;;;;;;;19.80;70.30;;;;;;6307226;22;19916;-72
2023/07/02 01:35:56;;;;;;;;;;;19.80;70.30;;;;;;6306906;22;20343;-72
2023/07/02 01:38:22;;;;;;;;;;;19.80;70.10;;;;;;6306845;22;19910;-72
2023/07/02 01:40:47;;;;;;;;;;;19.80;70.00;;;;;;6306779;22;19911;-72
2023/07/02 01:43:13;;;;;;;;;;;19.70;69.90;;;;;;6306974;22;20246;-72
2023/07/02 01:45:40;;;;;;;;;;;19.70;70.00;;;;;;6306593;22;19911;-73
2023/07/02 01:48:06;;;;;;;;;;;19.70;70.30;;;;;;6306333;22;20296;-73
2023/07/02 01:50:31;;;;;;;;;;;19.70;70.40;;;;;;6306468;22;19915;-73
2023/07/02 01:52:57;;;;;;;;;;;19.70;70.40;;;;;;6306619;22;19907;-73
2023/07/02 01:55:22;;;;;;;;;;;19.70;70.50;;;;;;6306444;22;19921;-73
2023/07/02 01:57:48;;;;;;;;;;;19.80;70.50;;;;;;6279165;22;20000;-73
2023/07/02 02:00:13;;;;;;;;;;;19.80;70.60;;;;;;6279160;22;19910;-73
2023/07/02 02:02:38;;;;;;;;;;;19.80;70.70;;;;;;6306616;22;20325;-73
2023/07/02 02:05:04;;;;;;;;;;;19.80;70.80;;;;;;6306447;22;19925;-73
2023/07/02 02:07:30;;;;;;;;;;;19.80;70.90;;;;;;6306376;22;19961;-73
2023/07/02 02:09:55;;;;;;;;;;;19.90;70.90;;;;;;6307196;22;19903;-72
2023/07/02 02:12:20;;;;;;;;;;;20.00;70.90;;;;;;6306379;22;19923;-72
2023/07/02 02:14:46;;;;;;;;;;;19.90;71.00;;;;;;6306915;22;20169;-72
2023/07/02 02:17:11;;;;;;;;;;;20.00;71.00;;;;;;6306770;22;19943;-73
2023/07/02 02:19:37;;;;;;;;;;;20.00;71.00;;;;;;6307005;22;19903;-73
2023/07/02 02:22:02;;;;;;;;;;;20.10;71.10;;;;;;6306397;22;19918;-73
2023/07/02 02:24:28;;;;;;;;;;;20.10;71.10;;;;;;6306134;22;19903;-73
2023/07/02 02:26:53;;;;;;;;;;;20.10;71.10;;;;;;6306346;22;19911;-73
2023/07/02 02:29:18;;;;;;;;;;;20.20;71.20;;;;;;6306880;22;19906;-72
2023/07/02 02:31:44;;;;;;;;;;;20.20;71.20;;;;;;6306554;22;20024;-73
2023/07/02 02:34:09;;;;;;;;;;;20.30;71.20;;;;;;6306609;22;19907;-73
2023/07/02 02:36:35;;;;;;;;;;;20.30;71.30;;;;;;6306371;22;19921;-72
2023/07/02 02:39:00;;;;;;;;;;;20.30;71.30;;;;;;6306529;22;19914;-72
2023/07/02 02:41:26;;;;;;;;;;;20.40;71.20;;;;;;6278759;22;19941;-73
2023/07/02 02:43:51;;;;;;;;;;;20.40;71.30;;;;;;6278735;22;20297;-72
2023/07/02 02:46:21;;;;;;;;;;;20.40;71.30;;;;;;6306372;22;20329;-72
2023/07/02 02:48:47;;;;;;;;;;;20.50;71.20;;;;;;6306536;22;19926;-72
2023/07/02 02:51:12;;;;;;;;;;;20.50;71.10;;;;;;6305895;22;20002;-72
2023/07/02 02:53:37;;;;;;;;;;;20.50;71.10;;;;;;6306120;22;19904;-73
2023/07/02 02:56:03;;;;;;;;;;;20.60;71.10;;;;;;6305893;22;19915;-73
2023/07/02 02:58:28;;;;;;;;;;;20.60;71.10;;;;;;6305850;22;20221;-73
2023/07/02 03:00:54;;;;;;;;;;;20.60;71.10;;;;;;6305878;22;19911;-73
2023/07/02 03:03:20;;;;;;;;;;;20.60;71.00;;;;;;6306474;22;20272;-72
2023/07/02 03:05:48;;;;;;;;;;;20.60;71.00;;;;;;6305855;22;20399;-73
2023/07/02 03:08:13;;;;;;;;;;;20.70;71.00;;;;;;6306138;22;20232;-72
2023/07/02 03:10:39;;;;;;;;;;;20.70;71.10;;;;;;6305530;22;20012;-72
2023/07/02 03:13:04;;;;;;;;;;;20.70;71.10;;;;;;6305894;22;19907;-72
2023/07/02 03:15:30;;;;;;;;;;;20.70;71.10;;;;;;6305636;22;19907;-73
2023/07/02 03:17:56;;;;;;;;;;;20.70;71.10;;;;;;6305735;22;19914;-72
2023/07/02 03:20:21;;;;;;;;;;;20.70;71.20;;;;;;6305496;22;19907;-72
2023/07/02 03:22:47;;;;;;;;;;;20.70;71.10;;;;;;6305551;22;19909;-72
2023/07/02 03:25:12;;;;;;;;;;;20.70;71.10;;;;;;6305755;22;19910;-72
2023/07/02 03:27:38;;;;;;;;;;;20.80;71.20;;;;;;6305391;22;20244;-72
2023/07/02 03:30:03;;;;;;;;;;;20.80;71.20;;;;;;6305604;22;19976;-72
2023/07/02 03:32:29;;;;;;;;;;;20.80;71.20;;;;;;6305795;22;20001;-72
2023/07/02 03:34:54;;;;;;;;;;;20.80;71.20;;;;;;6306156;22;19914;-72
2023/07/02 03:37:20;;;;;;;;;;;20.80;71.30;;;;;;6305537;22;19911;-72
2023/07/02 03:39:45;;;;;;;;;;;20.90;71.20;;;;;;6306102;22;20228;-73
2023/07/02 03:42:11;;;;;;;;;;;20.90;71.20;;;;;;6305998;22;19911;-72
2023/07/02 03:44:36;;;;;;;;;;;20.90;71.10;;;;;;6305964;22;19907;-72
2023/07/02 03:47:01;;;;;;;;;;;20.80;71.00;;;;;;6305818;22;19907;-71
2023/07/02 03:49:27;;;;;;;;;;;20.80;71.00;;;;;;6306068;22;19911;-71
2023/07/02 03:51:52;;;;;;;;;;;20.70;71.00;;;;;;6305435;22;20241;-71
2023/07/02 03:54:18;;;;;;;;;;;20.70;71.00;;;;;;6305802;22;20305;-70
2023/07/02 03:56:43;;;;;;;;;;;20.60;71.20;;;;;;6305552;22;19919;-71
2023/07/02 03:59:09;;;;;;;;;;;20.50;71.10;;;;;;6305820;22;19910;-70
2023/07/02 04:01:34;;;;;;;;;;;20.50;71.20;;;;;;6305729;22;20463;-70
2023/07/02 04:03:59;;;;;;;;;;;20.50;71.20;;;;;;6306235;22;20399;-70
2023/07/02 04:06:25;;;;;;;;;;;20.50;71.30;;;;;;6305456;22;19915;-69
2023/07/02 04:08:50;;;;;;;;;;;20.40;71.30;;;;;;6305561;22;19931;-69
2023/07/02 04:11:16;;;;;;;;;;;20.40;71.40;;;;;;6279437;22;19911;-70
2023/07/02 04:13:41;;;;;;;;;;;20.40;71.40;;;;;;6307658;22;20281;-69
2023/07/02 04:16:07;;;;;;;;;;;20.40;71.40;;;;;;6307352;22;19914;-69
2023/07/02 04:18:32;;;;;;;;;;;20.30;71.40;;;;;;6307867;22;19907;-68
2023/07/02 04:20:58;;;;;;;;;;;20.30;71.40;;;;;;6307245;22;20005;-69
2023/07/02 04:23:24;;;;;;;;;;;20.30;71.40;;;;;;6279855;22;19911;-69
2023/07/02 04:25:49;;;;;;;;;;;20.30;71.40;;;;;;6307285;22;19919;-69
2023/07/02 04:28:14;;;;;;;;;;;20.30;71.40;;;;;;6307629;22;19907;-68
2023/07/02 04:30:41;;;;;;;;;;;20.30;71.40;;;;;;6307135;22;19946;-69
2023/07/02 04:33:07;;;;;;;;;;;20.30;71.50;;;;;;6307628;22;19941;-68
2023/07/02 04:35:34;;;;;;;;;;;20.40;71.40;;;;;;6307365;22;20325;-68
2023/07/02 04:38:00;;;;;;;;;;;20.40;71.40;;;;;;6307361;22;19938;-69
2023/07/02 04:40:25;;;;;;;;;;;20.50;71.40;;;;;;6307215;22;19913;-69
2023/07/02 04:42:57;;;;;;;;;;;20.50;71.60;;;;;;6307264;22;19946;-69
2023/07/02 04:45:23;;;;;;;;;;;20.60;71.90;;;;;;6307121;22;19911;-69
2023/07/02 04:47:48;;;;;;;;;;;20.90;72.10;;;;;;6307027;22;19927;-69
2023/07/02 04:50:14;;;;;;;;;;;21.10;71.80;;;;;;6307105;22;20302;-69
2023/07/02 04:52:39;;;;;;;;;;;21.10;71.50;;;;;;6307399;22;19938;-68
2023/07/02 04:55:05;;;;;;;;;;;21.20;71.50;;;;;;6307028;22;19946;-69
2023/07/02 04:57:31;;;;;;;;;;;21.30;71.40;;;;;;6307496;22;19907;-69
2023/07/02 04:59:57;;;;;;;;;;;21.30;71.30;;;;;;6307515;22;19930;-68
2023/07/02 05:02:22;;;;;;;;;;;21.30;71.40;;;;;;6307149;22;19957;-68
2023/07/02 05:04:48;;;;;;;;;;;21.50;71.70;;;;;;6307671;22;20355;-69
2023/07/02 05:07:13;;;;;;;;;;;21.60;71.40;;;;;;6279993;22;19907;-70
2023/07/02 05:09:38;;;;;;;;;;;21.70;71.20;;;;;;6307785;22;19907;-68
2023/07/02 05:12:04;;;;;;;;;;;21.80;71.50;;;;;;6306710;22;19922;-69
2023/07/02 05:14:29;;;;;;;;;;;21.90;71.50;;;;;;6307516;22;19907;-70
2023/07/02 05:16:55;;;;;;;;;;;22.00;71.50;;;;;;6279674;22;19907;-70
2023/07/02 05:19:20;;;;;;;;;;;22.20;71.30;;;;;;6307316;22;20328;-71
2023/07/02 05:21:46;;;;;;;;;;;22.20;71.10;;;;;;6306786;22;20364;-71
2023/07/02 05:24:11;;;;;;;;;;;22.30;70.90;;;;;;6279872;22;19914;-70
2023/07/02 05:26:37;;;;;;;;;;;22.30;71.00;;;;;;6307218;22;19907;-70
2023/07/02 05:29:02;;;;;;;;;;;22.40;71.20;;;;;;6306981;22;19907;-68
2023/07/02 05:31:27;;;;;;;;;;;22.50;71.40;;;;;;6306749;22;19918;-71
2023/07/02 05:33:56;;;;;;;;;;;22.70;71.30;;;;;;6306955;22;19913;-71
2023/07/02 05:36:22;;;;;;;;;;;22.90;71.50;;;;;;6306683;22;19914;-71
2023/07/02 05:38:47;;;;;;;;;;;23.10;71.10;;;;;;6306835;22;19907;-71
2023/07/02 05:41:19;;;;;;;;;;;23.20;70.60;;;;;;6306867;22;19952;-70
2023/07/02 05:43:45;;;;;;;;;;;23.30;70.30;;;;;;6307247;22;20313;-71
2023/07/02 05:46:12;;;;;;;;;;;23.30;70.60;;;;;;6306449;22;19934;-72
2023/07/02 05:48:37;;;;;;;;;;;23.60;70.80;;;;;;6306637;22;20407;-72
2023/07/02 05:51:03;;;;;;;;;;;23.90;71.10;;;;;;6306140;22;19950;-72
2023/07/02 05:53:28;;;;;;;;;;;24.30;71.40;;;;;;6306519;22;19914;-73
2023/07/02 05:55:54;;;;;;;;;;;24.80;71.70;;;;;;6306021;22;19964;-73
2023/07/02 05:58:19;;;;;;;;;;;25.30;71.10;;;;;;6306460;22;19978;-74
2023/07/02 06:00:49;;;;;;;;;;;25.60;70.60;;;;;;6306455;22;19989;-73
2023/07/02 06:03:19;;;;;;;;;;;26.00;70.60;;;;;;6306679;22;19910;-72
2023/07/02 06:05:46;;;;;;;;;;;26.40;69.70;;;;;;6306443;22;19907;-72
2023/07/02 06:08:11;;;;;;;;;;;26.70;69.60;;;;;;6306470;22;19961;-72
2023/07/02 06:10:37;;;;;;;;;;;27.20;70.10;;;;;;6305959;22;19911;-73
2023/07/02 06:13:02;;;;;;;;;;;27.70;69.60;;;;;;6306310;22;19907;-73
2023/07/02 06:15:27;;;;;;;;;;;28.20;69.20;;;;;;6306049;22;19907;-73
2023/07/02 06:17:53;;;;;;;;;;;28.60;68.90;;;;;;6306185;22;19907;-73
2023/07/02 06:20:18;;;;;;;;;;;29.00;68.60;;;;;;6306386;22;19914;-74
2023/07/02 06:22:44;;;;;;;;;;;29.30;67.60;;;;;;6305186;22;19984;-75
2023/07/02 06:25:09;;;;;;;;;;;29.60;67.10;;;;;;6305912;22;19911;-74
2023/07/02 06:27:34;;;;;;;;;;;29.80;66.50;;;;;;6305778;22;20328;-75
2023/07/02 06:30:00;;;;;;;;;;;30.10;67.40;;;;;;6275575;22;19914;-75
2023/07/02 06:32:25;;;;;;;;;;;30.50;66.70;;;;;;6304915;22;19956;-75
2023/07/02 06:34:51;;;;;;;;;;;30.80;66.60;;;;;;6306799;22;19911;-75
2023/07/02 06:37:16;;;;;;;;;;;31.00;66.30;;;;;;6305808;22;19980;-75
2023/07/02 06:39:42;;;;;;;;;;;31.30;66.90;;;;;;6277582;22;19999;-75
2023/07/02 06:42:07;;;;;;;;;;;31.70;66.30;;;;;;6278410;22;19907;-75
2023/07/02 06:44:33;;;;;;;;;;;31.80;65.60;;;;;;6306210;22;19949;-75
2023/07/02 06:46:58;;;;;;;;;;;31.90;66.50;;;;;;6305798;22;19907;-74
2023/07/02 06:49:23;;;;;;;;;;;32.10;67.30;;;;;;6303092;22;20281;-75
2023/07/02 06:51:49;;;;;;;;;;;32.10;65.00;;;;;;6305651;22;19918;-75
2023/07/02 06:54:14;;;;;;;;;;;32.00;66.00;;;;;;6278265;22;19907;-75
2023/07/02 06:56:40;;;;;;;;;;;32.20;66.90;;;;;;6305802;22;20023;-75
2023/07/02 06:59:05;;;;;;;;;;;32.50;67.50;;;;;;6302721;22;19929;-75
2023/07/02 07:01:31;;;;;;;;;;;32.50;66.10;;;;;;6278378;22;19911;-75
2023/07/02 07:03:56;;;;;;;;;;;32.40;66.90;;;;;;6306406;22;19907;-75
2023/07/02 07:06:21;;;;;;;;;;;32.40;64.70;;;;;;6305138;22;20317;-75
2023/07/02 07:08:47;;;;;;;;;;;32.60;63.10;;;;;;6303026;22;19913;-75
2023/07/02 07:11:12;;;;;;;;;;;32.70;66.40;;;;;;6305284;22;19918;-74
2023/07/02 07:13:38;;;;;;;;;;;32.90;61.50;;;;;;6306019;22;19907;-74
2023/07/02 07:16:03;;;;;;;;;;;33.20;62.10;;;;;;6278092;22;19907;-74
2023/07/02 07:18:29;;;;;;;;;;;33.40;60.10;;;;;;6303450;22;19984;-74
2023/07/02 07:20:55;;;;;;;;;;;33.60;59.20;;;;;;6305754;22;19985;-76
2023/07/02 07:23:21;;;;;;;;;;;33.80;57.50;;;;;;6305471;22;19910;-75
2023/07/02 07:25:46;;;;;;;;;;;33.90;55.30;;;;;;6305068;22;19914;-75
2023/07/02 07:28:15;;;;;;;;;;;33.90;51.10;;;;;;6303374;22;20214;-75
2023/07/02 07:30:43;;;;;;;;;;;34.00;49.40;;;;;;6305017;22;20333;-75
2023/07/02 07:33:09;;;;;;;;;;;34.00;48.50;;;;;;6305592;22;20271;-75
2023/07/02 07:35:35;;;;;;;;;;;34.00;47.70;;;;;;6305147;22;19986;-75
2023/07/02 07:38:00;;;;;;;;;;;34.10;47.20;;;;;;6304709;22;19987;-74
2023/07/02 07:40:25;;;;;;;;;;;34.20;43.70;;;;;;6302636;22;19907;-75
2023/07/02 07:42:51;;;;;;;;;;;34.30;43.70;;;;;;6305598;22;19915;-75
2023/07/02 07:45:16;;;;;;;;;;;34.20;39.30;;;;;;6306828;22;20222;-75
2023/07/02 07:47:42;;;;;;;;;;;34.10;39.80;;;;;;6307607;22;20314;-75
2023/07/02 07:50:10;;;;;;;;;;;34.20;40.00;;;;;;6304013;22;19907;-75
2023/07/02 07:52:36;;;;;;;;;;;34.30;40.60;;;;;;6280381;22;19911;-75
2023/07/02 07:55:02;;;;;;;;;;;34.20;38.60;;;;;;6307429;22;19918;-76
2023/07/02 07:57:27;;;;;;;;;;;34.20;40.00;;;;;;6307642;22;20303;-75
2023/07/02 07:59:52;;;;;;;;;;;34.30;36.80;;;;;;6304428;22;19915;-74
2023/07/02 08:02:18;;;;;;;;;;;34.30;37.40;;;;;;6307556;22;19911;-74
2023/07/02 08:04:43;;;;;;;;;;;34.50;36.90;;;;;;6307649;22;20225;-75
2023/07/02 08:07:09;;;;;;;;;;;34.60;36.90;;;;;;6307492;22;19986;-73
2023/07/02 08:09:34;;;;;;;;;;;35.20;37.40;;;;;;6304509;22;19989;-74
2023/07/02 08:12:00;;;;;;;;;;;35.60;35.20;;;;;;6307256;22;19957;-74
2023/07/02 08:14:25;;;;;;;;;;;35.90;32.40;;;;;;6308093;22;19907;-74
2023/07/02 08:16:51;;;;;;;;;;;36.30;33.20;;;;;;6307524;22;19972;-73
2023/07/02 08:19:17;;;;;;;;;;;36.80;32.00;;;;;;6307807;22;20279;-73
2023/07/02 08:21:42;;;;;;;;;;;37.20;30.40;;;;;;6307648;22;20289;-73
2023/07/02 08:24:08;;;;;;;;;;;37.10;27.60;;;;;;6306940;22;19907;-74
2023/07/02 08:26:33;;;;;;;;;;;37.00;28.40;;;;;;6307335;22;19918;-74
2023/07/02 08:28:59;;;;;;;;;;;37.00;28.00;;;;;;6304169;22;20000;-73
2023/07/02 08:31:24;;;;;;;;;;;36.70;28.60;;;;;;6307134;22;19946;-73
2023/07/02 08:33:49;;;;;;;;;;;36.30;27.80;;;;;;6307204;22;20263;-73
2023/07/02 08:36:15;;;;;;;;;;;35.80;27.60;;;;;;6307602;22;19907;-73
2023/07/02 08:38:42;;;;;;;;;;;35.20;27.40;;;;;;6303966;22;19984;-74
2023/07/02 08:41:07;;;;;;;;;;;34.70;28.40;;;;;;6306963;22;19911;-74
2023/07/02 08:43:33;;;;;;;;;;;34.20;27.70;;;;;;6307267;22;19914;-74
2023/07/02 08:45:58;;;;;;;;;;;33.70;27.80;;;;;;6307314;22;20218;-74
2023/07/02 08:48:26;;;;;;;;;;;33.20;27.90;;;;;;6307320;22;20236;-75
2023/07/02 08:50:51;;;;;;;;;;;32.80;28.90;;;;;;6306118;22;20002;-75
2023/07/02 08:53:17;;;;;;;;;;;32.70;30.00;;;;;;6307905;22;19934;-74
2023/07/02 08:55:42;;;;;;;;;;;32.50;29.80;;;;;;6306676;22;20001;-75
2023/07/02 08:58:08;;;;;;;;;;;32.30;29.20;;;;;;6305677;22;20301;-75
2023/07/02 09:00:36;;;;;;;;;;;32.00;29.30;;;;;;6305117;22;19907;-75
2023/07/02 09:03:15;;;;;;;;;;;32.00;30.50;;;;;;6307228;22;19914;-75
2023/07/02 09:05:52;;;;;;;;;;;32.20;29.60;;;;;;6306987;22;19911;-75
2023/07/02 09:08:24;;;;;;;;;;;32.10;28.60;;;;;;6305856;22;19911;-74
2023/07/02 09:10:50;;;;;;;;;;;32.20;29.00;;;;;;6279812;22;19910;-73
2023/07/02 09:13:16;;;;;;;;;;;32.50;27.50;;;;;;6307468;22;19941;-73
2023/07/02 09:15:42;;;;;;;;;;;32.70;27.10;;;;;;6307161;22;20288;-75
2023/07/02 09:18:16;;;;;;;;;;;33.10;27.10;;;;;;6305978;22;19907;-73
2023/07/02 09:20:42;;;;;;;;;;;33.40;25.70;;;;;;6305947;22;20248;-75
2023/07/02 09:23:07;;;;;;;;;;;33.50;25.70;;;;;;6307063;22;19941;-74
2023/07/02 09:25:36;;;;;;;;;;;33.70;25.50;;;;;;6306723;22;19948;-74
2023/07/02 09:28:02;;;;;;;;;;;33.80;25.10;;;;;;6306238;22;19941;-74
2023/07/02 09:30:28;;;;;;;;;;;33.60;24.40;;;;;;6302385;22;19968;-74
2023/07/02 09:32:54;;;;;;;;;;;33.40;24.10;;;;;;6307649;22;19930;-74
2023/07/02 09:35:19;;;;;;;;;;;33.10;24.50;;;;;;6279712;22;20226;-74
2023/07/02 09:37:45;;;;;;;;;;;32.90;24.30;;;;;;6307344;22;19903;-74
2023/07/02 09:40:11;;;;;;;;;;;32.70;24.40;;;;;;6302752;22;19952;-74
2023/07/02 09:42:38;;;;;;;;;;;32.60;25.00;;;;;;6306656;22;19903;-74
2023/07/02 09:45:07;;;;;;;;;;;32.80;25.60;;;;;;6306668;22;19972;-74
2023/07/02 09:47:34;;;;;;;;;;;33.30;26.00;;;;;;6305945;22;19929;-75
2023/07/02 09:50:03;;;;;;;;;;;34.00;25.00;;;;;;6301989;22;19911;-76
2023/07/02 09:52:28;;;;;;;;;;;34.40;23.60;;;;;;6305895;22;19913;-75
2023/07/02 09:54:54;;;;;;;;;;;34.40;22.20;;;;;;6279525;22;20313;-73
2023/07/02 09:57:19;;;;;;;;;;;34.10;22.10;;;;;;6306235;22;19952;-75
2023/07/02 09:59:45;;;;;;;;;;;33.80;22.20;;;;;;6302750;22;19964;-74
2023/07/02 10:02:11;;;;;;;;;;;33.50;21.70;;;;;;6306206;22;19918;-74
2023/07/02 10:04:43;;;;;;;;;;;33.00;22.20;;;;;;6306770;22;19907;-74
2023/07/02 10:07:09;;;;;;;;;;;32.80;23.20;;;;;;6305766;22;19907;-68
2023/07/02 10:09:38;;;;;;;;;;;32.70;23.30;;;;;;6302278;22;20209;-69
2023/07/02 10:12:23;;;;;;;;;;;32.60;23.50;;;;;;6305868;22;19942;-68
2023/07/02 10:14:49;;;;;;;;;;;32.80;23.80;;;;;;6306838;22;19961;-68
2023/07/02 10:17:25;;;;;;;;;;;33.30;23.70;;;;;;6306071;22;20301;-69
2023/07/02 10:19:53;;;;;;;;;;;33.80;22.90;;;;;;6302208;22;19957;-68
2023/07/02 10:22:19;;;;;;;;;;;33.90;23.00;;;;;;6278370;22;19914;-66
2023/07/02 10:24:52;;;;;;;;;;;34.20;23.00;;;;;;6306686;22;19907;-66
2023/07/02 10:27:17;;;;;;;;;;;34.40;22.70;;;;;;6305723;22;20423;-66
2023/07/02 10:29:48;;;;;;;;;;;34.40;22.60;;;;;;6302190;22;19911;-66
2023/07/02 10:32:25;;;;;;;;;;;34.50;22.80;;;;;;6306061;22;19915;-66
2023/07/02 10:34:50;;;;;;;;;;;34.50;21.70;;;;;;6306780;22;19915;-67
2023/07/02 10:37:16;;;;;;;;;;;34.70;22.10;;;;;;6305617;22;19907;-67
2023/07/02 10:39:42;;;;;;;;;;;35.10;21.70;;;;;;6302052;22;19918;-66
2023/07/02 10:42:08;;;;;;;;;;;35.50;21.40;;;;;;6305613;22;19907;-67
2023/07/02 10:44:33;;;;;;;;;;;36.00;21.00;;;;;;6306708;22;19907;-66
2023/07/02 10:46:59;;;;;;;;;;;36.30;20.90;;;;;;6306002;22;19968;-67
2023/07/02 10:49:32;;;;;;;;;;;36.40;20.30;;;;;;6301961;22;19977;-67
2023/07/02 10:52:01;;;;;;;;;;;36.40;20.50;;;;;;6305489;22;20010;-67
2023/07/02 10:54:38;;;;;;;;;;;36.60;20.50;;;;;;6306409;22;20382;-66
2023/07/02 10:57:04;;;;;;;;;;;36.70;20.20;;;;;;6278552;22;19969;-67
2023/07/02 10:59:29;;;;;;;;;;;36.50;19.70;;;;;;6302343;22;20313;-68
2023/07/02 11:01:56;;;;;;;;;;;36.20;19.80;;;;;;6306166;22;19907;-70
2023/07/02 11:04:21;;;;;;;;;;;35.70;19.60;;;;;;6305920;22;20291;-74
2023/07/02 11:06:47;;;;;;;;;;;35.20;19.80;;;;;;6305455;22;19907;-73
2023/07/02 11:09:17;;;;;;;;;;;34.80;20.60;;;;;;6301622;22;19907;-74
2023/07/02 11:11:50;;;;;;;;;;;34.70;21.00;;;;;;6305301;22;19918;-74
2023/07/02 11:14:25;;;;;;;;;;;34.50;21.20;;;;;;6305475;22;20328;-75
2023/07/02 11:16:53;;;;;;;;;;;34.50;21.40;;;;;;6305346;22;19907;-75
2023/07/02 11:19:19;;;;;;;;;;;34.60;21.50;;;;;;6303616;22;20368;-75
2023/07/02 11:21:52;;;;;;;;;;;34.80;21.30;;;;;;6305366;22;19937;-75
2023/07/02 11:24:25;;;;;;;;;;;34.90;21.20;;;;;;6305745;22;19907;-75
2023/07/02 11:26:51;;;;;;;;;;;34.80;20.90;;;;;;6305955;22;20344;-75
2023/07/02 11:29:19;;;;;;;;;;;34.50;21.30;;;;;;6306081;22;19907;-75
2023/07/02 11:31:45;;;;;;;;;;;34.40;21.60;;;;;;6278180;22;19942;-76
2023/07/02 11:34:11;;;;;;;;;;;34.40;21.90;;;;;;6306243;22;20424;-75
2023/07/02 11:36:36;;;;;;;;;;;34.60;22.30;;;;;;6278458;22;19903;-76
2023/07/02 11:39:02;;;;;;;;;;;34.90;21.90;;;;;;6278595;22;20418;-76
2023/07/02 11:41:36;;;;;;;;;;;35.20;21.50;;;;;;6305509;22;20347;-75
2023/07/02 11:44:01;;;;;;;;;;;35.60;21.40;;;;;;6306121;22;20236;-73
2023/07/02 11:46:27;;;;;;;;;;;35.80;20.90;;;;;;6305307;22;19903;-74
2023/07/02 11:48:52;;;;;;;;;;;35.50;20.70;;;;;;6305641;22;19917;-74
2023/07/02 11:51:18;;;;;;;;;;;35.10;20.80;;;;;;6305243;22;19907;-74
2023/07/02 11:53:44;;;;;;;;;;;34.70;21.30;;;;;;6306015;22;19915;-74
2023/07/02 11:56:09;;;;;;;;;;;34.40;21.60;;;;;;6305322;22;19917;-74
2023/07/02 11:58:35;;;;;;;;;;;34.30;22.00;;;;;;6278024;22;19922;-74
2023/07/02 12:01:00;;;;;;;;;;;34.50;22.00;;;;;;6305443;22;19933;-74
2023/07/02 12:03:26;;;;;;;;;;;34.80;22.20;;;;;;6305603;22;19918;-74
2023/07/02 12:05:51;;;;;;;;;;;35.20;21.60;;;;;;6305655;22;19992;-74
2023/07/02 12:08:16;;;;;;;;;;;35.20;21.40;;;;;;6305588;22;19942;-72
2023/07/02 12:10:42;;;;;;;;;;;35.30;21.50;;;;;;6305977;22;19911;-75
2023/07/02 12:13:07;;;;;;;;;;;35.20;21.30;;;;;;6305318;22;19980;-75
2023/07/02 12:15:33;;;;;;;;;;;34.90;21.40;;;;;;6305016;22;19903;-75
2023/07/02 12:17:58;;;;;;;;;;;34.50;21.70;;;;;;6305395;22;20019;-74
2023/07/02 12:20:24;;;;;;;;;;;34.10;22.00;;;;;;6305198;22;20237;-74
2023/07/02 12:22:49;;;;;;;;;;;34.00;22.70;;;;;;6305336;22;19903;-75
2023/07/02 12:25:15;;;;;;;;;;;34.10;22.20;;;;;;6305744;22;19907;-75
2023/07/02 12:27:40;;;;;;;;;;;34.10;22.20;;;;;;6305180;22;19909;-74
2023/07/02 12:30:06;;;;;;;;;;;34.00;22.10;;;;;;6305372;22;19942;-75
2023/07/02 12:32:31;;;;;;;;;;;33.90;22.10;;;;;;6306503;22;19964;-74
2023/07/02 12:34:57;;;;;;;;;;;33.80;21.80;;;;;;6307297;22;19902;-74
2023/07/02 12:37:22;;;;;;;;;;;33.80;22.40;;;;;;6307361;22;19985;-74
2023/07/02 12:39:48;;;;;;;;;;;33.90;22.10;;;;;;6280337;22;19911;-74
2023/07/02 12:42:13;;;;;;;;;;;34.00;22.10;;;;;;6307187;22;19981;-74
2023/07/02 12:44:39;;;;;;;;;;;34.20;22.10;;;;;;6307666;22;20694;-75
2023/07/02 12:47:04;;;;;;;;;;;34.40;21.90;;;;;;6306980;22;19911;-74
2023/07/02 12:49:30;;;;;;;;;;;34.70;21.60;;;;;;6307390;22;19911;-74
2023/07/02 12:51:55;;;;;;;;;;;34.60;21.40;;;;;;6306976;22;19907;-74
2023/07/02 12:54:20;;;;;;;;;;;34.60;21.20;;;;;;6307413;22;19933;-72
2023/07/02 12:56:46;;;;;;;;;;;34.60;20.80;;;;;;6307103;22;20278;-73
2023/07/02 12:59:11;;;;;;;;;;;34.70;21.00;;;;;;6307366;22;19996;-74
2023/07/02 13:01:37;;;;;;;;;;;34.80;21.10;;;;;;6304637;22;19902;-74
2023/07/02 13:04:03;;;;;;;;;;;35.00;20.60;;;;;;6306997;22;20237;-75
2023/07/02 13:06:29;;;;;;;;;;;35.10;20.20;;;;;;6306465;22;19902;-75
2023/07/02 13:08:55;;;;;;;;;;;35.00;20.30;;;;;;6304062;22;19942;-74
2023/07/02 13:11:21;;;;;;;;;;;34.70;20.30;;;;;;6306767;22;19907;-75
2023/07/02 13:13:47;;;;;;;;;;;34.40;20.40;;;;;;6307238;22;19911;-75
2023/07/02 13:16:12;;;;;;;;;;;34.30;20.50;;;;;;6306897;22;20309;-74
2023/07/02 13:18:37;;;;;;;;;;;34.00;21.00;;;;;;6306992;22;19918;-75
2023/07/02 13:21:03;;;;;;;;;;;33.70;21.20;;;;;;6306719;22;19981;-74
2023/07/02 13:23:28;;;;;;;;;;;33.70;21.60;;;;;;6306837;22;19960;-74
2023/07/02 13:25:54;;;;;;;;;;;33.90;21.60;;;;;;6307091;22;19907;-75
2023/07/02 13:28:21;;;;;;;;;;;34.10;21.10;;;;;;6307148;22;19911;-74
2023/07/02 13:30:46;;;;;;;;;;;34.40;20.70;;;;;;6306626;22;19906;-73
2023/07/02 13:33:11;;;;;;;;;;;34.60;20.10;;;;;;6306917;22;19911;-73
2023/07/02 13:35:38;;;;;;;;;;;34.80;20.30;;;;;;6279155;22;19903;-74
2023/07/02 13:38:04;;;;;;;;;;;34.80;19.70;;;;;;6279076;22;19911;-74
2023/07/02 13:40:30;;;;;;;;;;;34.90;20.10;;;;;;6306441;22;19981;-73
2023/07/02 13:42:55;;;;;;;;;;;35.10;20.00;;;;;;6306959;22;20286;-74
2023/07/02 13:45:21;;;;;;;;;;;35.20;19.60;;;;;;6306677;22;19910;-72
2023/07/02 13:47:47;;;;;;;;;;;34.80;19.70;;;;;;6306508;22;19914;-73
2023/07/02 13:50:12;;;;;;;;;;;34.50;19.90;;;;;;6306637;22;19910;-74
2023/07/02 13:52:38;;;;;;;;;;;34.30;20.20;;;;;;6306215;22;19906;-74
2023/07/02 13:55:03;;;;;;;;;;;34.10;20.50;;;;;;6306347;22;19907;-73
2023/07/02 13:57:29;;;;;;;;;;;33.80;20.50;;;;;;6306261;22;19910;-74
2023/07/02 13:59:56;;;;;;;;;;;33.50;20.80;;;;;;6307411;22;19985;-74
2023/07/02 14:02:22;;;;;;;;;;;33.50;21.20;;;;;;6306335;22;19907;-73
2023/07/02 14:04:48;;;;;;;;;;;33.30;21.00;;;;;;6306761;22;19921;-73
2023/07/02 14:07:14;;;;;;;;;;;33.30;21.30;;;;;;6306446;22;20291;-73
2023/07/02 14:09:39;;;;;;;;;;;33.10;20.90;;;;;;6306454;22;19915;-73